createdAt,value
2018-08-12T00:02:10.967Z,12.90
2018-08-12T00:04:38.877Z,12.80
2018-08-12T00:07:06.600Z,12.70
2018-08-12T00:09:34.429Z,12.70
2018-08-12T00:12:02.317Z,12.70
2018-08-12T00:14:30.112Z,12.70
2018-08-12T00:16:57.936Z,12.70
2018-08-12T00:19:25.739Z,12.60
2018-08-12T00:21:53.563Z,12.50
2018-08-12T00:24:21.421Z,12.40
2018-08-12T00:26:49.344Z,12.40
2018-08-12T00:29:17.204Z,12.30
2018-08-12T00:31:45.020Z,12.40
2018-08-12T00:34:12.854Z,12.40
2018-08-12T00:36:40.643Z,12.40
2018-08-12T00:39:11.268Z,12.40
2018-08-12T00:41:39.093Z,12.30
2018-08-12T00:44:07.191Z,12.30
2018-08-12T00:46:35.221Z,12.30
2018-08-12T00:49:03.244Z,12.30
2018-08-12T00:51:31.699Z,12.20
2018-08-12T00:53:59.409Z,12.20
2018-08-12T00:56:27.577Z,12.20
2018-08-12T00:58:55.391Z,12.10
2018-08-12T01:01:23.232Z,12.10
2018-08-12T01:03:51.099Z,12.10
2018-08-12T01:06:18.975Z,12.00
2018-08-12T01:08:46.811Z,12.00
2018-08-12T01:11:14.583Z,11.90
2018-08-12T01:13:42.417Z,11.90
2018-08-12T01:16:10.245Z,11.80
2018-08-12T01:18:38.143Z,11.80
2018-08-12T01:21:06.015Z,11.70
2018-08-12T01:26:16.594Z,11.70
2018-08-12T01:28:44.135Z,11.70
2018-08-12T01:31:11.675Z,11.60
2018-08-12T01:33:39.204Z,11.60
2018-08-12T01:36:06.739Z,11.60
2018-08-12T01:38:34.288Z,11.60
2018-08-12T01:41:01.822Z,11.60
2018-08-12T01:43:29.342Z,11.50
2018-08-12T01:45:56.858Z,11.50
2018-08-12T01:48:24.387Z,11.40
2018-08-12T01:50:51.914Z,11.30
2018-08-12T01:53:19.444Z,11.30
2018-08-12T01:55:46.960Z,11.30
2018-08-12T01:58:14.468Z,11.30
2018-08-12T02:00:41.974Z,11.20
2018-08-12T02:03:09.471Z,11.20
2018-08-12T02:05:36.978Z,11.10
2018-08-12T02:08:04.478Z,11.10
2018-08-12T02:10:31.998Z,11.10
2018-08-12T02:12:59.506Z,11.00
2018-08-12T02:15:27.007Z,11.00
2018-08-12T02:17:54.498Z,11.00
2018-08-12T02:20:21.990Z,11.00
2018-08-12T02:22:49.478Z,10.90
2018-08-12T02:25:16.982Z,11.00
2018-08-12T02:27:44.474Z,10.90
2018-08-12T02:30:12.678Z,10.90
2018-08-12T02:32:40.957Z,10.90
2018-08-12T02:35:08.922Z,10.80
2018-08-12T02:37:36.448Z,10.80
2018-08-12T02:40:05.808Z,10.80
2018-08-12T02:42:33.379Z,10.80
2018-08-12T02:45:00.935Z,10.80
2018-08-12T02:47:28.881Z,10.70
2018-08-12T02:49:56.415Z,10.70
2018-08-12T02:52:23.947Z,10.70
2018-08-12T02:54:51.482Z,10.60
2018-08-12T02:57:19.016Z,10.60
2018-08-12T02:59:46.567Z,10.60
2018-08-12T03:02:14.108Z,10.50
2018-08-12T03:04:41.641Z,10.50
2018-08-12T03:07:09.155Z,10.50
2018-08-12T03:09:36.690Z,10.50
2018-08-12T03:12:04.508Z,10.50
2018-08-12T03:14:32.043Z,10.60
2018-08-12T03:16:59.576Z,10.70
2018-08-12T03:19:27.099Z,10.80
2018-08-12T03:21:54.642Z,10.90
2018-08-12T03:24:22.167Z,10.90
2018-08-12T03:26:49.722Z,11.00
2018-08-12T03:29:17.254Z,11.00
2018-08-12T03:31:44.791Z,11.10
2018-08-12T03:34:12.365Z,11.10
2018-08-12T03:36:39.914Z,11.10
2018-08-12T03:39:09.274Z,11.10
2018-08-12T03:41:36.811Z,11.10
2018-08-12T03:44:04.479Z,11.20
2018-08-12T03:46:32.031Z,11.20
2018-08-12T03:48:59.642Z,11.30
2018-08-12T03:51:27.111Z,11.30
2018-08-12T03:53:54.626Z,11.30
2018-08-12T03:56:22.148Z,11.30
2018-08-12T03:58:49.648Z,11.30
2018-08-12T04:01:17.155Z,11.30
2018-08-12T04:03:44.673Z,11.30
2018-08-12T04:06:12.170Z,11.30
2018-08-12T04:08:39.666Z,11.30
2018-08-12T04:11:07.166Z,11.30
2018-08-12T04:13:34.663Z,11.30
2018-08-12T04:16:02.179Z,11.30
2018-08-12T04:18:29.688Z,11.30
2018-08-12T04:20:57.187Z,11.20
2018-08-12T04:23:24.688Z,11.30
2018-08-12T04:25:52.198Z,11.30
2018-08-12T04:28:19.699Z,11.30
2018-08-12T04:30:47.212Z,11.40
2018-08-12T04:33:14.742Z,11.40
2018-08-12T04:35:42.254Z,11.40
2018-08-12T04:38:09.763Z,11.50
2018-08-12T04:40:37.263Z,11.50
2018-08-12T04:43:04.914Z,11.60
2018-08-12T04:45:32.456Z,11.60
2018-08-12T04:47:59.958Z,11.70
2018-08-12T04:50:27.467Z,11.80
2018-08-12T04:52:54.958Z,12.00
2018-08-12T04:55:22.522Z,12.00
2018-08-12T04:57:50.059Z,12.10
2018-08-12T05:00:17.596Z,12.20
2018-08-12T05:02:45.133Z,12.30
2018-08-12T05:05:12.663Z,12.40
2018-08-12T05:07:40.194Z,12.40
2018-08-12T05:10:07.867Z,12.50
2018-08-12T05:12:35.407Z,12.50
2018-08-12T05:15:03.832Z,12.60
2018-08-12T05:17:31.364Z,12.70
2018-08-12T05:19:58.882Z,12.80
2018-08-12T05:22:26.403Z,13.00
2018-08-12T05:24:53.948Z,13.20
2018-08-12T05:27:21.484Z,14.00
2018-08-12T05:29:49.013Z,15.60
2018-08-12T05:32:16.542Z,17.50
2018-08-12T05:34:44.060Z,19.80
2018-08-12T05:37:11.643Z,21.70
2018-08-12T05:39:39.153Z,23.00
2018-08-12T05:42:06.699Z,23.90
2018-08-12T05:44:34.222Z,24.60
2018-08-12T05:47:01.760Z,25.10
2018-08-12T05:49:29.300Z,24.70
2018-08-12T05:51:56.830Z,24.80
2018-08-12T05:54:24.357Z,25.10
2018-08-12T05:56:51.903Z,25.30
2018-08-12T05:59:19.422Z,25.20
2018-08-12T06:01:46.951Z,25.60
2018-08-12T06:04:14.475Z,26.70
2018-08-12T06:06:42.024Z,26.70
2018-08-12T06:09:10.226Z,26.40
2018-08-12T06:11:37.767Z,27.30
2018-08-12T06:14:06.162Z,28.20
2018-08-12T06:16:33.719Z,29.00
2018-08-12T06:19:01.265Z,29.60
2018-08-12T06:21:28.783Z,30.20
2018-08-12T06:23:56.302Z,30.70
2018-08-12T06:26:23.864Z,31.10
2018-08-12T06:28:51.391Z,31.20
2018-08-12T06:31:18.918Z,31.20
2018-08-12T06:33:46.444Z,31.40
2018-08-12T06:36:13.970Z,31.70
2018-08-12T06:38:41.495Z,31.80
2018-08-12T06:41:09.047Z,31.50
2018-08-12T06:43:36.591Z,30.60
2018-08-12T06:46:04.155Z,30.40
2018-08-12T06:48:31.758Z,30.70
2018-08-12T06:50:59.297Z,30.80
2018-08-12T06:53:26.843Z,31.00
2018-08-12T06:55:54.377Z,30.60
2018-08-12T06:58:21.883Z,29.90
2018-08-12T07:00:49.379Z,30.00
2018-08-12T07:03:16.894Z,30.10
2018-08-12T07:05:44.410Z,29.90
2018-08-12T07:08:11.937Z,30.10
2018-08-12T07:10:39.438Z,30.50
2018-08-12T07:13:06.967Z,31.10
2018-08-12T07:15:34.471Z,31.10
2018-08-12T07:18:01.979Z,31.00
2018-08-12T07:20:29.495Z,31.00
2018-08-12T07:22:57.024Z,31.10
2018-08-12T07:25:25.673Z,31.10
2018-08-12T07:27:53.758Z,31.30
2018-08-12T07:30:21.778Z,31.30
2018-08-12T07:32:49.859Z,31.20
2018-08-12T07:35:17.755Z,30.90
2018-08-12T07:37:45.771Z,30.80
2018-08-12T07:40:19.040Z,30.50
2018-08-12T07:55:50.003Z,30.70
2018-08-12T07:58:17.507Z,30.90
2018-08-12T08:00:45.044Z,30.90
2018-08-12T08:03:12.585Z,30.90
2018-08-12T08:05:40.095Z,31.00
2018-08-12T08:08:07.645Z,31.10
2018-08-12T08:10:35.181Z,31.10
2018-08-12T08:13:02.730Z,30.90
2018-08-12T08:15:30.266Z,30.70
2018-08-12T08:17:57.820Z,30.50
2018-08-12T08:20:25.329Z,30.50
2018-08-12T08:22:52.854Z,30.70
2018-08-12T08:25:20.416Z,31.10
2018-08-12T08:27:47.958Z,31.30
2018-08-12T08:30:15.742Z,31.60
2018-08-12T08:32:43.506Z,31.80
2018-08-12T08:35:11.771Z,32.00
2018-08-12T08:37:39.650Z,32.20
2018-08-12T08:40:09.971Z,32.40
2018-08-12T08:42:37.527Z,32.50
2018-08-12T08:45:10.636Z,32.70
2018-08-12T08:47:38.178Z,32.90
2018-08-12T08:50:06.364Z,33.00
2018-08-12T08:52:33.909Z,33.10
2018-08-12T08:55:01.455Z,33.30
2018-08-12T08:57:28.979Z,33.50
2018-08-12T08:59:56.479Z,33.60
2018-08-12T09:02:23.986Z,33.60
2018-08-12T09:04:51.516Z,33.70
2018-08-12T09:07:19.015Z,33.90
2018-08-12T09:09:46.526Z,34.00
2018-08-12T09:12:14.015Z,34.20
2018-08-12T09:14:41.519Z,34.40
2018-08-12T09:17:09.022Z,34.60
2018-08-12T09:19:36.535Z,35.00
2018-08-12T09:22:04.038Z,34.90
2018-08-12T09:24:31.522Z,34.80
2018-08-12T09:26:59.024Z,34.80
2018-08-12T09:29:26.548Z,35.10
2018-08-12T09:31:54.060Z,35.20
2018-08-12T09:34:21.582Z,35.00
2018-08-12T09:36:49.092Z,34.90
2018-08-12T09:39:16.607Z,35.00
2018-08-12T09:41:44.137Z,35.30
2018-08-12T09:44:11.638Z,35.60
2018-08-12T09:46:39.150Z,35.70
2018-08-12T09:49:06.666Z,35.70
2018-08-12T09:51:34.210Z,35.50
2018-08-12T09:54:01.698Z,35.50
2018-08-12T09:56:29.552Z,35.50
2018-08-12T09:58:57.065Z,35.20
2018-08-12T10:01:24.572Z,35.20
2018-08-12T10:03:52.108Z,35.30
2018-08-12T10:06:19.608Z,35.40
2018-08-12T10:08:47.112Z,35.50
2018-08-12T10:11:14.618Z,35.60
2018-08-12T10:13:42.122Z,35.80
2018-08-12T10:16:09.656Z,35.70
2018-08-12T10:18:37.190Z,35.80
2018-08-12T10:21:04.711Z,35.80
2018-08-12T10:23:32.240Z,36.00
2018-08-12T10:25:59.734Z,36.20
2018-08-12T10:28:27.246Z,36.30
2018-08-12T10:30:54.755Z,36.30
2018-08-12T10:33:22.280Z,36.30
2018-08-12T10:35:49.790Z,36.30
2018-08-12T10:38:17.306Z,36.30
2018-08-12T10:40:44.818Z,36.30
2018-08-12T10:43:12.333Z,36.60
2018-08-12T10:45:39.847Z,36.60
2018-08-12T10:48:07.356Z,36.80
2018-08-12T10:50:34.910Z,36.90
2018-08-12T10:53:02.434Z,37.00
2018-08-12T10:55:30.007Z,36.90
2018-08-12T10:57:57.582Z,36.70
2018-08-12T11:00:28.512Z,36.50
2018-08-12T11:02:56.078Z,36.20
2018-08-12T11:05:23.646Z,35.90
2018-08-12T11:07:53.526Z,36.00
2018-08-12T11:10:21.298Z,36.30
2018-08-12T11:12:48.923Z,36.40
2018-08-12T11:15:16.454Z,36.40
2018-08-12T11:17:43.986Z,36.50
2018-08-12T11:20:11.542Z,36.70
2018-08-12T11:22:39.091Z,37.10
2018-08-12T11:25:08.628Z,37.10
2018-08-12T11:27:36.372Z,36.90
2018-08-12T11:30:08.760Z,36.20
2018-08-12T11:32:36.298Z,35.60
2018-08-12T11:35:04.455Z,35.20
2018-08-12T11:37:31.995Z,34.90
2018-08-12T11:39:59.542Z,34.60
2018-08-12T11:42:27.071Z,34.30
2018-08-12T11:44:54.619Z,33.80
2018-08-12T11:47:22.222Z,33.60
2018-08-12T11:49:49.715Z,33.60
2018-08-12T11:52:17.235Z,33.60
2018-08-12T11:54:44.766Z,33.80
2018-08-12T11:57:12.490Z,33.90
2018-08-12T11:59:40.067Z,34.10
2018-08-12T12:02:08.208Z,34.30
2018-08-12T12:04:35.733Z,34.60
2018-08-12T12:07:03.291Z,34.80
2018-08-12T12:09:30.831Z,35.00
2018-08-12T12:11:58.380Z,35.20
2018-08-12T12:14:25.914Z,35.40
2018-08-12T12:16:53.452Z,35.70
2018-08-12T12:19:21.055Z,35.90
2018-08-12T12:21:48.579Z,36.00
2018-08-12T12:24:16.121Z,36.00
2018-08-12T12:26:43.658Z,36.30
2018-08-12T12:29:11.199Z,36.40
2018-08-12T12:31:38.735Z,36.60
2018-08-12T12:34:06.591Z,36.70
2018-08-12T12:36:34.131Z,36.80
2018-08-12T12:39:01.700Z,36.70
2018-08-12T12:41:29.231Z,36.90
2018-08-12T12:43:56.773Z,36.90
2018-08-12T12:46:24.314Z,37.00
2018-08-12T12:48:52.728Z,37.10
2018-08-12T12:51:20.272Z,37.20
2018-08-12T12:53:47.790Z,37.30
2018-08-12T12:56:15.341Z,37.50
2018-08-12T12:58:42.820Z,37.60
2018-08-12T13:01:10.323Z,37.60
2018-08-12T13:03:37.822Z,37.70
2018-08-12T13:06:05.408Z,37.60
2018-08-12T13:08:32.918Z,37.50
2018-08-12T13:11:00.439Z,37.50
2018-08-12T13:13:27.951Z,37.30
2018-08-12T13:15:55.476Z,37.20
2018-08-12T13:18:22.971Z,37.30
2018-08-12T13:20:50.516Z,37.40
2018-08-12T13:23:18.025Z,37.40
2018-08-12T13:25:45.556Z,37.50
2018-08-12T13:28:13.070Z,37.70
2018-08-12T13:30:40.594Z,37.70
2018-08-12T13:33:08.188Z,37.70
2018-08-12T13:35:35.635Z,37.70
2018-08-12T13:38:03.143Z,37.70
2018-08-12T13:40:30.665Z,37.80
2018-08-12T13:42:58.185Z,37.70
2018-08-12T13:45:25.718Z,37.60
2018-08-12T13:47:53.222Z,37.50
2018-08-12T13:50:22.205Z,37.60
2018-08-12T13:52:50.382Z,37.80
2018-08-12T13:55:18.659Z,37.80
2018-08-12T13:57:46.723Z,37.70
2018-08-12T14:00:16.714Z,37.40
2018-08-12T14:02:44.657Z,37.00
2018-08-12T14:05:14.730Z,36.90
2018-08-12T14:07:42.515Z,37.00
2018-08-12T14:10:10.932Z,37.10
2018-08-12T14:12:39.243Z,37.20
2018-08-12T14:15:11.695Z,37.40
2018-08-12T14:17:40.312Z,37.30
2018-08-12T14:20:09.507Z,37.20
2018-08-12T14:22:37.357Z,37.00
2018-08-12T14:25:05.808Z,37.00
2018-08-12T14:27:33.712Z,37.10
2018-08-12T14:30:01.739Z,37.20
2018-08-12T14:32:29.598Z,37.20
2018-08-12T14:34:57.411Z,37.20
2018-08-12T14:37:25.374Z,37.20
2018-08-12T14:39:53.266Z,37.30
2018-08-12T14:42:21.100Z,37.50
2018-08-12T14:44:49.023Z,37.70
2018-08-12T14:47:16.802Z,37.80
2018-08-12T14:49:44.580Z,38.00
2018-08-12T14:52:12.441Z,38.10
2018-08-12T14:54:40.281Z,38.10
2018-08-12T14:57:08.028Z,38.30
2018-08-12T14:59:35.823Z,38.20
2018-08-12T15:02:03.804Z,38.30
2018-08-12T15:04:31.563Z,38.30
2018-08-12T15:06:59.323Z,38.30
2018-08-12T15:09:27.187Z,38.10
2018-08-12T15:11:54.996Z,37.90
2018-08-12T15:14:22.979Z,37.80
2018-08-12T15:16:50.785Z,37.60
2018-08-12T15:19:18.639Z,37.70
2018-08-12T15:21:46.475Z,37.70
2018-08-12T15:24:14.330Z,37.50
2018-08-12T15:26:42.081Z,37.10
2018-08-12T15:29:09.949Z,36.90
2018-08-12T15:31:37.726Z,36.80
2018-08-12T15:34:05.554Z,36.80
2018-08-12T15:36:33.336Z,36.60
2018-08-12T15:39:01.136Z,36.50
2018-08-12T15:41:28.909Z,36.50
2018-08-12T15:43:56.710Z,36.50
2018-08-12T15:46:24.546Z,36.40
2018-08-12T15:48:52.309Z,36.20
2018-08-12T15:51:20.184Z,36.00
2018-08-12T15:53:47.917Z,35.90
2018-08-12T15:56:15.749Z,35.80
2018-08-12T15:58:43.568Z,35.80
2018-08-12T16:01:11.402Z,35.70
2018-08-12T16:03:39.213Z,35.60
2018-08-12T16:06:07.051Z,35.50
2018-08-12T16:08:34.852Z,35.30
2018-08-12T16:11:02.671Z,35.10
2018-08-12T16:13:30.549Z,35.10
2018-08-12T16:15:58.491Z,34.90
2018-08-12T16:18:26.305Z,34.70
2018-08-12T16:20:54.167Z,34.50
2018-08-12T16:23:22.051Z,34.30
2018-08-12T16:25:49.793Z,34.10
2018-08-12T16:28:17.551Z,33.90
2018-08-12T16:30:45.281Z,33.80
2018-08-12T16:33:13.129Z,33.70
2018-08-12T16:35:40.976Z,33.60
2018-08-12T16:38:08.769Z,33.40
2018-08-12T16:40:36.616Z,33.40
2018-08-12T16:43:04.406Z,33.20
2018-08-12T16:45:32.204Z,33.10
2018-08-12T16:47:59.999Z,33.00
2018-08-12T16:50:27.811Z,32.80
2018-08-12T16:52:55.631Z,32.60
2018-08-12T16:55:23.442Z,32.30
2018-08-12T16:57:51.291Z,32.00
2018-08-12T17:00:20.836Z,31.80
2018-08-12T17:02:48.724Z,31.60
2018-08-12T17:05:21.299Z,31.40
2018-08-12T17:07:49.529Z,31.20
2018-08-12T17:10:18.052Z,31.00
2018-08-12T17:12:45.832Z,30.80
2018-08-12T17:15:16.156Z,30.60
2018-08-12T17:17:44.119Z,30.40
2018-08-12T17:20:14.816Z,30.20
2018-08-12T17:22:43.283Z,30.00
2018-08-12T17:25:11.091Z,29.80
2018-08-12T17:27:38.867Z,29.60
2018-08-12T17:30:09.457Z,29.50
2018-08-12T17:32:37.260Z,29.30
2018-08-12T17:35:06.268Z,29.10
2018-08-12T17:37:34.173Z,28.90
2018-08-12T17:40:02.267Z,28.70
2018-08-12T17:42:30.003Z,28.50
2018-08-12T17:44:57.725Z,28.20
2018-08-12T17:47:25.579Z,28.00
2018-08-12T17:49:53.448Z,27.90
2018-08-12T17:52:21.224Z,27.60
2018-08-12T17:54:49.025Z,27.50
2018-08-12T17:57:16.828Z,27.20
2018-08-12T17:59:44.583Z,26.90
2018-08-12T18:02:12.391Z,26.70
2018-08-12T18:04:40.181Z,26.40
2018-08-12T18:07:07.971Z,26.20
2018-08-12T18:09:35.738Z,26.00
2018-08-12T18:12:03.641Z,25.70
2018-08-12T18:14:31.561Z,25.60
2018-08-12T18:16:59.507Z,25.40
2018-08-12T18:19:27.285Z,25.10
2018-08-12T18:21:55.103Z,24.90
2018-08-12T18:24:22.959Z,24.70
2018-08-12T18:26:51.009Z,24.50
2018-08-12T18:29:18.761Z,24.30
2018-08-12T18:31:46.583Z,24.10
2018-08-12T18:34:14.432Z,24.00
2018-08-12T18:36:42.310Z,23.80
2018-08-12T18:39:11.655Z,23.80
2018-08-12T18:41:39.720Z,23.80
2018-08-12T18:44:08.139Z,23.80
2018-08-12T18:46:36.000Z,23.80
2018-08-12T18:49:03.873Z,23.70
2018-08-12T18:51:31.757Z,23.60
2018-08-12T18:53:59.583Z,23.50
2018-08-12T18:56:27.440Z,23.40
2018-08-12T18:58:55.198Z,23.30
2018-08-12T19:01:23.120Z,23.30
2018-08-12T19:03:50.851Z,23.30
2018-08-12T19:06:18.624Z,23.20
2018-08-12T19:08:46.416Z,23.20
2018-08-12T19:11:14.205Z,23.20
2018-08-12T19:13:41.999Z,23.30
2018-08-12T19:16:09.807Z,23.30
2018-08-12T19:18:37.613Z,23.30
2018-08-12T19:21:05.423Z,23.40
2018-08-12T19:23:33.396Z,23.50
2018-08-12T19:26:01.196Z,23.50
2018-08-12T19:28:29.021Z,23.50
2018-08-12T19:30:56.819Z,23.50
2018-08-12T19:33:24.584Z,23.50
2018-08-12T19:35:52.380Z,23.40
2018-08-12T19:38:20.251Z,23.30
2018-08-12T19:40:48.016Z,23.40
2018-08-12T19:43:15.783Z,23.40
2018-08-12T19:45:43.559Z,23.40
2018-08-12T19:48:11.335Z,23.30
2018-08-12T19:50:39.194Z,23.30
2018-08-12T19:53:07.044Z,23.20
2018-08-12T19:55:34.602Z,23.20
2018-08-12T19:58:02.107Z,23.20
2018-08-12T20:00:29.604Z,23.20
2018-08-12T20:02:57.127Z,23.10
2018-08-12T20:05:24.650Z,23.10
2018-08-12T20:07:52.159Z,23.00
2018-08-12T20:10:19.668Z,23.00
2018-08-12T20:12:47.178Z,22.90
2018-08-12T20:15:14.683Z,22.80
2018-08-12T20:17:42.196Z,22.60
2018-08-12T20:20:11.428Z,22.50
2018-08-12T20:22:39.111Z,22.30
2018-08-12T20:25:06.947Z,22.10
2018-08-12T20:27:34.464Z,21.90
2018-08-12T20:30:02.081Z,21.60
2018-08-12T20:32:29.599Z,21.40
2018-08-12T20:34:57.180Z,21.20
2018-08-12T20:37:24.675Z,21.10
2018-08-12T20:39:52.179Z,20.90
2018-08-12T20:42:19.681Z,20.80
2018-08-12T20:44:47.191Z,20.60
2018-08-12T20:47:14.712Z,20.50
2018-08-12T20:49:42.207Z,20.30
2018-08-12T20:52:09.833Z,20.30
2018-08-12T20:54:37.234Z,20.10
2018-08-12T20:57:04.758Z,20.10
2018-08-12T20:59:32.341Z,20.00
2018-08-12T21:01:59.819Z,19.90
2018-08-12T21:04:27.502Z,19.80
2018-08-12T21:06:55.027Z,19.70
2018-08-12T21:09:22.574Z,19.60
2018-08-12T21:11:50.133Z,19.60
2018-08-12T21:14:17.614Z,19.40
2018-08-12T21:16:45.136Z,19.30
2018-08-12T21:19:12.692Z,19.20
2018-08-12T21:21:40.230Z,19.20
2018-08-12T21:24:07.772Z,19.10
2018-08-12T21:26:35.304Z,19.00
2018-08-12T21:29:02.847Z,18.90
2018-08-12T21:31:30.355Z,18.80
2018-08-12T21:33:57.867Z,18.80
2018-08-12T21:36:25.387Z,18.80
2018-08-12T21:38:52.911Z,18.70
2018-08-12T21:41:20.422Z,18.70
2018-08-12T21:43:47.954Z,18.60
2018-08-12T21:46:15.475Z,18.60
2018-08-12T21:48:43.029Z,18.50
2018-08-12T21:51:10.538Z,18.50
2018-08-12T21:53:38.063Z,18.50
2018-08-12T21:56:05.591Z,18.50
2018-08-12T21:58:33.117Z,18.40
2018-08-12T22:01:00.661Z,18.50
2018-08-12T22:03:28.213Z,18.50
2018-08-12T22:05:55.823Z,18.60
2018-08-12T22:08:23.263Z,18.70
2018-08-12T22:10:50.801Z,18.70
2018-08-12T22:13:18.323Z,18.80
2018-08-12T22:15:45.876Z,18.70
2018-08-12T22:18:13.420Z,18.70
2018-08-12T22:20:40.959Z,18.70
2018-08-12T22:23:08.475Z,18.70
2018-08-12T22:25:36.012Z,18.70
2018-08-12T22:28:04.340Z,18.70
2018-08-12T22:30:31.999Z,18.70
2018-08-12T22:32:59.759Z,18.70
2018-08-12T22:35:27.298Z,18.70
2018-08-12T22:37:54.843Z,18.70
2018-08-12T22:40:22.447Z,18.70
2018-08-12T22:42:49.980Z,18.80
2018-08-12T22:45:17.506Z,18.80
2018-08-12T22:47:45.032Z,18.80
2018-08-12T22:50:12.567Z,18.80
2018-08-12T22:52:40.087Z,18.70
2018-08-12T22:55:08.015Z,18.70
2018-08-12T22:57:35.890Z,18.70
2018-08-12T23:00:07.589Z,18.60
2018-08-12T23:02:35.126Z,18.50
2018-08-12T23:05:02.863Z,18.40
2018-08-12T23:07:30.392Z,18.30
2018-08-12T23:09:57.935Z,18.20
2018-08-12T23:12:25.456Z,18.20
2018-08-12T23:15:00.171Z,18.10
2018-08-12T23:17:30.595Z,18.00
2018-08-12T23:19:58.111Z,18.00
2018-08-12T23:22:25.638Z,18.00
2018-08-12T23:24:53.169Z,17.90
2018-08-12T23:27:20.698Z,17.90
2018-08-12T23:29:48.223Z,17.90
2018-08-12T23:32:15.764Z,17.80
2018-08-12T23:34:43.286Z,17.80
2018-08-12T23:37:10.821Z,17.70
2018-08-12T23:39:38.364Z,17.70
2018-08-12T23:42:05.899Z,17.60
2018-08-12T23:44:33.432Z,17.60
2018-08-12T23:47:00.959Z,17.60
2018-08-12T23:49:28.490Z,17.60
2018-08-12T23:51:56.016Z,17.50
2018-08-12T23:54:23.550Z,17.50
2018-08-12T23:56:51.070Z,17.50
2018-08-12T23:59:18.586Z,17.50
